KPSP/PSP METAR and TAF weather

Enter ICAO airport designator
Station Type Date Time Source
KPSP METAR 2019/04/19 07:53 UTC NOAA

KPSP 190753Z AUTO 35007KT 10SM CLR 26/02 A2999 RMK AO2 SLP151 T02560022 403670161


Station Type Date Time Source
KPSP Decoded METAR 2019/04/19 07:53 UTC NOAA

PALM SPRINGS REGIONAL AIRPORT , CA, United States (KPSP) 33-50N 116-30W 135M
Apr 19, 2019 - 03:53 AM EDT / 2019.04.19 0753 UTC
Wind: from the N (350 degrees) at 8 MPH (7 KT):0
Visibility: 10 mile(s):0
Sky conditions: clear
Temperature: 78.1 F (25.6 C)
Dew Point: 36.0 F (2.2 C)
Relative Humidity: 21%
Pressure (altimeter): 29.99 in. Hg (1015 hPa)
ob: KPSP 190753Z AUTO 35007KT 10SM CLR 26/02 A2999 RMK AO2 SLP151 T02560022 403670161
cycle: 8

Station Type Date Time Source
KPSP TAF 2019/04/19 06:22 UTC NOAA

TAF KPSP 190520Z 1906/2006 33007KT P6SM SKC
FM191500 VRB04KT P6SM SCT250
FM191900 11007KT P6SM SCT250
FM200300 33010KT P6SM SKC

Example: see airport list